Terminal Aerodrome Forecast
Issued by NWS

Home | Current Version | Previous Version | Text Only | Print | Product List | Glossary On
Versions: 1 2 3 4 5 6 7 8 9 10 11 12 13 14 15 16 17 18 19 20 21 22 23 24 25 26 27 28 29 30 31 32
186
FTUS43 KGRB 202333
TAFATW
TAF
KATW 202333Z 2100/2124 20007KT P6SM SCT100
     FM210300 21005KT P6SM SCT050 BKN150
      TEMPO 2109/2113 4SM BR
     FM211500 21004KT P6SM SCT040 BKN090=

USA.gov is the U.S. government's official web portal to all federal, state and local government web resources and services.